Time;durP1;ratioP1;P1;durP2;ratioP2;P2;SDS_P1;SDS_P2;PMS_P1;PMS_P2;Temp;Humidity;BMP_temperature;BMP_pressure;BME280_temperature;BME280_humidity;BME280_pressure;Samples;Min_cycle;Max_cycle;Signal;HPM_P1;HPM_P2
2023/12/13 00:00:14;;;;;;;17.40;3.00;;;14.00;99.90;;;;;;7381151;19;20260;-75
2023/12/13 00:02:45;;;;;;;24.40;3.15;;;14.00;99.90;;;;;;7406451;19;20019;-73
2023/12/13 00:05:14;;;;;;;21.92;2.95;;;13.80;99.90;;;;;;7380730;19;20002;-73
2023/12/13 00:07:42;;;;;;;22.67;2.92;;;13.70;99.90;;;;;;7380484;19;20090;-73
2023/12/13 00:10:11;;;;;;;24.35;3.17;;;13.80;99.90;;;;;;7380761;19;20019;-73
2023/12/13 00:12:40;;;;;;;18.02;2.70;;;13.80;99.90;;;;;;7380896;19;20020;-75
2023/12/13 00:15:10;;;;;;;17.67;2.90;;;13.90;99.90;;;;;;7376652;19;20073;-74
2023/12/13 00:17:38;;;;;;;15.93;2.55;;;13.90;99.90;;;;;;7401133;19;20003;-74
2023/12/13 00:20:11;;;;;;;27.60;3.40;;;13.90;99.90;;;;;;7379934;19;20389;-74
2023/12/13 00:22:40;;;;;;;19.77;3.03;;;13.80;99.90;;;;;;7380429;19;20058;-74
2023/12/13 00:25:10;;;;;;;29.77;3.53;;;13.90;99.90;;;;;;7380336;19;20264;-75
2023/12/13 00:27:39;;;;;;;23.10;3.10;;;13.90;99.90;;;;;;7379182;19;20034;-74
2023/12/13 00:30:09;;;;;;;27.75;3.65;;;14.00;99.90;;;;;;7379834;19;20086;-73
2023/12/13 00:32:37;;;;;;;22.48;3.58;;;14.00;99.90;;;;;;7401168;19;20091;-73
2023/12/13 00:35:10;;;;;;;31.40;3.00;;;14.00;99.90;;;;;;7379666;19;20030;-74
2023/12/13 00:37:38;;;;;;;23.70;3.35;;;14.00;99.90;;;;;;7379426;19;20003;-73
2023/12/13 00:40:10;;;;;;;26.67;3.80;;;13.60;99.90;;;;;;7379432;19;20027;-74
2023/12/13 00:42:39;;;;;;;16.92;3.15;;;13.60;99.90;;;;;;7380115;19;20011;-74
2023/12/13 00:45:09;;;;;;;25.15;3.10;;;13.60;99.90;;;;;;7380146;19;20066;-76
2023/12/13 00:47:38;;;;;;;30.48;3.40;;;13.50;99.90;;;;;;7400787;19;20375;-73
2023/12/13 00:50:10;;;;;;;23.33;3.17;;;13.60;99.90;;;;;;7378486;19;20023;-74
2023/12/13 00:52:39;;;;;;;20.73;2.90;;;13.60;99.90;;;;;;7379480;19;20011;-74
2023/12/13 00:55:09;;;;;;;19.02;3.30;;;13.60;99.90;;;;;;7379502;19;20023;-73
2023/12/13 00:57:38;;;;;;;25.00;3.13;;;13.40;99.90;;;;;;7378938;19;20003;-74
2023/12/13 01:00:09;;;;;;;28.05;3.45;;;13.40;99.90;;;;;;7385603;19;20006;-73
2023/12/13 01:02:38;;;;;;;15.02;2.78;;;13.40;99.90;;;;;;7401379;19;20027;-73
2023/12/13 01:05:10;;;;;;;23.25;2.90;;;13.40;99.90;;;;;;7380697;19;19999;-74
2023/12/13 01:07:39;;;;;;;18.88;2.75;;;13.40;99.90;;;;;;7381958;19;20424;-73
2023/12/13 01:10:09;;;;;;;19.30;3.17;;;13.40;99.90;;;;;;7381025;19;20073;-74
2023/12/13 01:12:37;;;;;;;18.65;3.17;;;13.40;99.90;;;;;;7382340;19;20027;-74
2023/12/13 01:15:08;;;;;;;21.15;3.63;;;13.40;99.90;;;;;;7402002;19;20063;-73
2023/12/13 01:17:37;;;;;;;32.80;3.28;;;13.50;99.90;;;;;;7378064;19;20007;-73
2023/12/13 01:20:10;;;;;;;21.83;2.65;;;13.60;99.90;;;;;;7377881;19;20712;-74
2023/12/13 01:22:38;;;;;;;18.85;2.95;;;13.50;99.90;;;;;;7378531;19;20266;-74
2023/12/13 01:25:08;;;;;;;17.55;3.10;;;13.50;99.90;;;;;;7378361;19;20066;-74
2023/12/13 01:27:37;;;;;;;31.83;3.38;;;13.50;99.90;;;;;;7376101;19;20006;-73
2023/12/13 01:30:10;;;;;;;40.35;3.58;;;13.60;99.90;;;;;;7399969;19;20027;-74
2023/12/13 01:32:38;;;;;;;19.10;3.03;;;13.50;99.90;;;;;;7377974;19;20006;-74
2023/12/13 01:35:11;;;;;;;29.17;3.08;;;13.50;99.90;;;;;;7377903;19;20028;-74
2023/12/13 01:37:39;;;;;;;20.45;3.35;;;13.50;99.90;;;;;;7377984;19;20006;-74
2023/12/13 01:40:10;;;;;;;18.85;2.85;;;13.50;99.90;;;;;;7377820;19;20006;-74
2023/12/13 01:42:40;;;;;;;24.38;3.13;;;13.40;99.90;;;;;;7377854;19;20124;-73
2023/12/13 01:45:10;;;;;;;22.20;3.15;;;13.40;99.90;;;;;;7399435;19;20014;-73
2023/12/13 01:47:39;;;;;;;26.17;3.75;;;13.40;99.90;;;;;;7380791;19;20016;-73
2023/12/13 01:50:12;;;;;;;22.17;3.70;;;13.40;99.90;;;;;;7375972;19;20010;-74
2023/12/13 01:52:41;;;;;;;20.55;3.63;;;13.40;99.90;;;;;;7377502;19;20013;-74
2023/12/13 01:55:13;;;;;;;19.65;2.97;;;13.40;99.90;;;;;;7378738;19;20006;-73
2023/12/13 01:57:42;;;;;;;24.23;4.00;;;13.40;99.90;;;;;;7377331;19;20003;-74
2023/12/13 02:00:12;;;;;;;22.52;2.70;;;13.40;99.90;;;;;;7381310;19;20046;-74
2023/12/13 02:02:42;;;;;;;18.65;2.88;;;13.40;99.90;;;;;;7399085;19;20083;-74
2023/12/13 02:05:16;;;;;;;20.75;2.88;;;13.40;99.90;;;;;;7376559;19;20429;-73
2023/12/13 02:07:45;;;;;;;28.05;3.08;;;13.30;99.90;;;;;;7377831;19;20023;-73
2023/12/13 02:10:14;;;;;;;24.42;2.90;;;13.30;99.90;;;;;;7377257;19;20002;-74
2023/12/13 02:12:43;;;;;;;31.17;2.67;;;13.30;99.90;;;;;;7377998;19;20030;-73
2023/12/13 02:15:12;;;;;;;24.40;2.92;;;13.30;99.90;;;;;;7382709;19;20027;-73
2023/12/13 02:17:51;;;;;;;28.10;3.40;;;13.30;99.90;;;;;;7398682;19;20017;-74
2023/12/13 02:20:22;;;;;;;16.42;2.78;;;13.30;99.90;;;;;;7376241;19;20379;-73
2023/12/13 02:22:54;;;;;;;26.27;2.97;;;13.30;99.90;;;;;;7377203;19;20002;-74
2023/12/13 02:25:32;;;;;;;27.10;3.33;;;13.20;99.90;;;;;;7377353;19;20019;-73
2023/12/13 02:28:00;;;;;;;14.48;2.35;;;13.20;99.90;;;;;;7376609;19;20074;-73
2023/12/13 02:30:30;;;;;;;14.02;2.55;;;13.10;99.90;;;;;;7376492;19;20010;-74
2023/12/13 02:32:59;;;;;;;18.48;2.45;;;13.10;99.90;;;;;;7398342;19;20021;-74
2023/12/13 02:35:27;;;;;;;14.25;2.75;;;13.10;99.90;;;;;;7376017;19;20018;-74
2023/12/13 02:37:59;;;;;;;14.13;2.33;;;13.10;99.90;;;;;;7378528;19;20310;-73
2023/12/13 02:40:28;;;;;;;24.55;2.60;;;13.10;99.90;;;;;;7383569;19;20379;-73
2023/12/13 02:42:57;;;;;;;18.20;3.03;;;13.10;99.90;;;;;;7384147;19;20102;-73
2023/12/13 02:45:25;;;;;;;14.88;2.85;;;13.10;99.90;;;;;;7383933;19;20106;-73
2023/12/13 02:47:56;;;;;;;21.70;2.58;;;13.20;99.90;;;;;;7405119;19;20014;-74
2023/12/13 02:50:24;;;;;;;16.23;3.10;;;13.20;99.90;;;;;;7383733;19;20439;-73
2023/12/13 02:52:53;;;;;;;19.35;2.47;;;13.20;99.90;;;;;;7383424;19;20015;-73
2023/12/13 02:55:25;;;;;;;13.60;2.20;;;13.10;99.90;;;;;;7383512;19;20094;-73
2023/12/13 02:57:53;;;;;;;;;;;13.20;99.90;;;;;;7383929;19;20007;-73
2023/12/13 03:00:22;;;;;;;23.00;3.42;;;13.20;99.90;;;;;;7383776;19;19911;-74
2023/12/13 03:02:51;;;;;;;11.75;2.22;;;13.10;99.90;;;;;;7405255;19;20066;-74
2023/12/13 03:05:20;;;;;;;15.93;3.28;;;13.10;99.90;;;;;;7382393;19;20002;-74
2023/12/13 03:07:48;;;;;;;16.65;2.17;;;13.10;99.90;;;;;;7383086;19;20368;-74
2023/12/13 03:10:18;;;;;;;13.02;2.60;;;13.00;99.90;;;;;;7386463;19;20007;-74
2023/12/13 03:12:50;;;;;;;15.90;2.53;;;13.00;99.90;;;;;;7388070;19;20002;-74
2023/12/13 03:15:18;;;;;;;16.98;3.20;;;13.00;99.90;;;;;;7387507;19;20014;-74
2023/12/13 03:17:47;;;;;;;19.63;3.17;;;12.90;99.90;;;;;;7409109;19;20028;-73
2023/12/13 03:20:16;;;;;;;16.35;2.28;;;12.90;99.90;;;;;;7384814;19;20022;-74
2023/12/13 03:22:45;;;;;;;10.45;1.85;;;12.90;99.90;;;;;;7382666;19;20056;-74
2023/12/13 03:25:14;;;;;;;21.83;2.47;;;13.00;99.90;;;;;;7382662;19;20078;-73
2023/12/13 03:27:44;;;;;;;21.35;2.72;;;13.00;99.90;;;;;;7382733;19;20010;-74
2023/12/13 03:30:16;;;;;;;14.45;2.80;;;13.00;99.90;;;;;;7403693;19;20014;-73
2023/12/13 03:32:44;;;;;;;15.90;2.47;;;13.00;99.90;;;;;;7381812;19;20354;-73
2023/12/13 03:35:13;;;;;;;10.02;2.25;;;13.00;99.90;;;;;;7381494;19;20010;-73
2023/12/13 03:37:44;;;;;;;12.90;2.30;;;13.00;99.90;;;;;;7381644;19;20006;-74
2023/12/13 03:40:14;;;;;;;14.55;2.90;;;13.00;99.90;;;;;;7380564;19;20023;-74
2023/12/13 03:42:43;;;;;;;20.10;2.37;;;13.00;99.90;;;;;;7381472;19;20503;-74
2023/12/13 03:45:15;;;;;;;22.42;2.80;;;13.10;99.90;;;;;;7403404;19;20099;-73
2023/12/13 03:47:45;;;;;;;22.77;2.40;;;13.10;99.90;;;;;;7385084;19;20006;-73
2023/12/13 03:50:14;;;;;;;23.77;2.78;;;13.10;99.90;;;;;;7378023;19;20013;-74
2023/12/13 03:52:42;;;;;;;19.13;2.40;;;13.10;99.90;;;;;;7381369;19;20003;-73
2023/12/13 03:55:12;;;;;;;15.77;2.55;;;13.10;99.90;;;;;;7381578;19;20010;-73
2023/12/13 03:57:41;;;;;;;18.73;3.40;;;13.10;99.90;;;;;;7380137;19;20007;-73
2023/12/13 04:00:13;;;;;;;15.90;2.65;;;13.10;99.90;;;;;;7400463;19;20484;-73
2023/12/13 04:02:46;;;;;;;25.40;3.58;;;13.00;99.90;;;;;;7380916;19;20338;-74
2023/12/13 04:05:15;;;;;;;13.45;2.55;;;13.00;99.90;;;;;;7380661;19;20006;-73
2023/12/13 04:07:43;;;;;;;17.10;3.28;;;13.00;99.90;;;;;;7380792;19;20059;-73
2023/12/13 04:10:12;;;;;;;22.00;3.42;;;12.90;99.90;;;;;;7381029;19;20010;-74
2023/12/13 04:12:41;;;;;;;25.50;2.85;;;13.00;99.90;;;;;;7381181;19;20006;-74
2023/12/13 04:15:10;;;;;;;20.30;2.67;;;13.00;99.90;;;;;;7402042;19;20369;-74
2023/12/13 04:17:39;;;;;;;17.85;2.55;;;13.00;99.90;;;;;;7380220;19;20020;-73
2023/12/13 04:20:12;;;;;;;17.15;3.30;;;13.00;99.90;;;;;;7379513;19;20014;-74
2023/12/13 04:22:40;;;;;;;16.33;2.45;;;12.90;99.90;;;;;;7380545;19;20068;-74
2023/12/13 04:25:10;;;;;;;16.92;2.67;;;13.00;99.90;;;;;;7380380;19;20075;-73
2023/12/13 04:27:39;;;;;;;24.38;3.05;;;12.90;99.90;;;;;;7380674;19;20010;-73
2023/12/13 04:30:11;;;;;;;22.92;3.03;;;13.00;99.90;;;;;;7401966;19;20050;-73
2023/12/13 04:32:39;;;;;;;32.47;3.80;;;13.00;99.90;;;;;;7379222;19;20007;-74
2023/12/13 04:35:12;;;;;;;12.05;2.15;;;13.00;99.90;;;;;;7379084;19;20042;-74
2023/12/13 04:37:40;;;;;;;11.45;2.78;;;13.10;99.90;;;;;;7379779;19;20016;-74
2023/12/13 04:40:10;;;;;;;26.90;3.63;;;13.00;99.90;;;;;;7379215;19;20007;-73
2023/12/13 04:42:39;;;;;;;25.08;2.70;;;13.00;99.90;;;;;;7380274;19;20027;-73
2023/12/13 04:45:10;;;;;;;37.65;3.80;;;13.00;99.90;;;;;;7401030;19;20023;-74
2023/12/13 04:47:39;;;;;;;23.92;3.30;;;12.80;99.90;;;;;;7379137;19;20295;-73
2023/12/13 04:50:14;;;;;;;18.50;2.58;;;12.80;99.90;;;;;;7377854;19;20078;-73
2023/12/13 04:52:42;;;;;;;24.77;3.38;;;12.80;99.90;;;;;;7378659;19;20058;-74
2023/12/13 04:55:11;;;;;;;19.25;3.03;;;12.80;99.90;;;;;;7382338;19;20789;-74
2023/12/13 04:57:42;;;;;;;27.45;2.70;;;12.70;99.90;;;;;;7379655;19;20147;-73
2023/12/13 05:00:11;;;;;;;19.77;2.67;;;12.80;99.90;;;;;;7398745;19;20023;-74
2023/12/13 05:02:42;;;;;;;28.48;3.70;;;12.80;99.90;;;;;;7378280;19;20019;-73
2023/12/13 05:05:13;;;;;;;21.23;3.07;;;12.60;99.90;;;;;;7378189;19;20070;-73
2023/12/13 05:07:42;;;;;;;25.67;2.90;;;12.70;99.90;;;;;;7378798;19;20024;-73
2023/12/13 05:10:11;;;;;;;16.45;2.97;;;12.80;99.90;;;;;;7378927;19;20078;-73
2023/12/13 05:12:39;;;;;;;25.38;2.75;;;12.70;99.90;;;;;;7379020;19;20055;-73
2023/12/13 05:15:09;;;;;;;26.15;3.08;;;12.80;99.90;;;;;;7400268;19;20070;-74
2023/12/13 05:17:38;;;;;;;21.25;3.17;;;12.80;99.90;;;;;;7380091;19;20161;-74
2023/12/13 05:20:10;;;;;;;30.10;3.10;;;12.80;99.90;;;;;;7380863;19;20479;-73
2023/12/13 05:22:41;;;;;;;22.20;2.83;;;12.90;99.90;;;;;;7384028;19;20007;-73
2023/12/13 05:25:12;;;;;;;32.50;3.60;;;12.90;99.90;;;;;;7382820;19;19998;-73
2023/12/13 05:27:42;;;;;;;35.92;3.85;;;12.90;99.90;;;;;;7380086;19;20015;-73
2023/12/13 05:30:12;;;;;;;20.03;2.47;;;12.90;99.90;;;;;;7398204;19;20011;-73
2023/12/13 05:32:40;;;;;;;18.83;3.08;;;12.90;99.90;;;;;;7377066;19;20059;-72
2023/12/13 05:35:10;;;;;;;19.80;3.03;;;13.00;99.90;;;;;;7377278;19;20015;-73
2023/12/13 05:37:41;;;;;;;23.77;3.47;;;13.00;99.90;;;;;;7378000;19;20066;-75
2023/12/13 05:40:10;;;;;;;;;;;13.00;99.90;;;;;;7379798;19;20010;-73
2023/12/13 05:42:39;;;;;;;21.02;2.30;;;13.00;99.90;;;;;;7376456;19;19924;-76
2023/12/13 05:45:09;;;;;;;23.40;2.92;;;13.00;99.90;;;;;;7399113;19;20014;-74
2023/12/13 05:47:37;;;;;;;20.70;3.17;;;13.00;99.90;;;;;;7376449;19;20002;-75
2023/12/13 05:50:07;;;;;;;14.23;2.58;;;13.00;99.90;;;;;;7376414;19;20014;-73
2023/12/13 05:52:36;;;;;;;25.33;2.58;;;13.00;99.90;;;;;;7377534;19;20019;-73
2023/12/13 05:55:08;;;;;;;25.95;2.90;;;13.00;99.90;;;;;;7377440;19;20036;-73
2023/12/13 05:57:37;;;;;;;26.02;3.22;;;12.90;99.90;;;;;;7377680;19;20011;-73
2023/12/13 06:00:08;;;;;;;24.60;3.00;;;12.90;99.90;;;;;;7397423;19;20011;-73
2023/12/13 06:02:37;;;;;;;27.42;3.88;;;12.90;99.90;;;;;;7376525;19;20002;-73
2023/12/13 06:05:06;;;;;;;31.73;3.25;;;12.90;99.90;;;;;;7376983;19;20358;-72
2023/12/13 06:07:35;;;;;;;20.10;2.85;;;12.80;99.90;;;;;;7379250;19;20017;-73
2023/12/13 06:10:07;;;;;;;19.25;3.08;;;12.80;99.90;;;;;;7377193;19;20074;-73
2023/12/13 06:12:36;;;;;;;16.38;2.78;;;12.80;99.90;;;;;;7381491;19;20030;-72
2023/12/13 06:15:07;;;;;;;10.05;3.00;;;12.70;99.90;;;;;;7409043;19;20011;-72
2023/12/13 06:17:35;;;;;;;22.80;3.20;;;12.60;99.90;;;;;;7386382;19;20390;-72
2023/12/13 06:20:04;;;;;;;20.40;2.65;;;12.60;99.90;;;;;;7384760;19;20074;-74
2023/12/13 06:22:34;;;;;;;17.15;2.70;;;12.60;99.90;;;;;;7387111;19;20011;-73
2023/12/13 06:25:02;;;;;;;15.45;3.20;;;12.60;99.90;;;;;;7387006;19;20015;-72
2023/12/13 06:27:34;;;;;;;25.02;3.30;;;12.50;99.90;;;;;;7386648;19;20022;-73
2023/12/13 06:30:02;;;;;;;30.13;3.40;;;12.50;99.90;;;;;;7408817;19;20075;-73
2023/12/13 06:32:31;;;;;;;13.25;2.80;;;12.50;99.90;;;;;;7385372;19;19999;-74
2023/12/13 06:35:00;;;;;;;11.60;2.65;;;12.40;99.90;;;;;;7384849;19;20007;-72
2023/12/13 06:37:29;;;;;;;18.20;2.50;;;12.40;99.90;;;;;;7385063;19;20023;-73
2023/12/13 06:39:58;;;;;;;22.80;3.17;;;12.40;99.90;;;;;;7385411;19;20141;-74
2023/12/13 06:42:28;;;;;;;19.58;3.53;;;12.40;99.90;;;;;;7386046;19;20017;-74
2023/12/13 06:44:59;;;;;;;14.82;2.65;;;12.30;99.90;;;;;;7407778;19;20382;-73
2023/12/13 06:47:28;;;;;;;23.10;3.55;;;12.30;99.90;;;;;;7384693;19;20010;-74
2023/12/13 06:49:57;;;;;;;20.80;3.60;;;12.30;99.90;;;;;;7383208;19;20071;-73
2023/12/13 06:52:25;;;;;;;17.13;3.20;;;12.20;99.90;;;;;;7385202;19;20082;-74
2023/12/13 06:54:54;;;;;;;11.00;2.17;;;12.10;99.90;;;;;;7385628;19;20342;-73
2023/12/13 06:57:23;;;;;;;13.32;2.30;;;12.10;99.90;;;;;;7389795;19;20007;-73
2023/12/13 06:59:52;;;;;;;19.95;2.70;;;12.10;99.90;;;;;;7405753;19;20070;-73
2023/12/13 07:02:23;;;;;;;24.67;2.60;;;12.10;99.90;;;;;;7384024;19;20006;-73
2023/12/13 07:04:52;;;;;;;13.70;2.28;;;12.00;99.90;;;;;;7383503;19;20010;-72
2023/12/13 07:07:20;;;;;;;16.70;2.50;;;12.00;99.90;;;;;;7382688;19;20304;-73
2023/12/13 07:09:49;;;;;;;18.42;3.20;;;12.00;99.90;;;;;;7382750;19;20110;-73
2023/12/13 07:12:18;;;;;;;8.98;2.72;;;11.90;99.90;;;;;;7407362;19;20023;-74
2023/12/13 07:14:46;;;;;;;24.73;4.07;;;11.90;99.90;;;;;;7384077;19;20006;-73
2023/12/13 07:17:15;;;;;;;19.80;2.67;;;11.80;99.90;;;;;;7384165;19;20085;-72
2023/12/13 07:19:46;;;;;;;775.45;435.10;;;11.80;99.90;;;;;;7382773;19;20027;-73
2023/12/13 07:22:15;;;;;;;400.85;193.98;;;11.80;99.90;;;;;;7384204;19;20082;-73
2023/12/13 07:24:44;;;;;;;154.73;63.47;;;11.80;99.90;;;;;;7387579;19;20009;-74
2023/12/13 07:27:12;;;;;;;148.48;64.22;;;11.70;99.90;;;;;;7409329;19;20020;-73
2023/12/13 07:29:43;;;;;;;128.27;57.33;;;11.70;99.90;;;;;;7387275;19;20279;-73
2023/12/13 07:32:12;;;;;;;57.50;21.20;;;11.70;99.90;;;;;;7390527;19;20082;-73
2023/12/13 07:34:43;;;;;;;35.10;6.53;;;11.80;99.90;;;;;;7387169;19;20007;-73
2023/12/13 07:37:14;;;;;;;22.88;3.70;;;11.80;99.90;;;;;;7382880;19;20003;-72
2023/12/13 07:39:43;;;;;;;22.63;5.47;;;11.80;99.90;;;;;;7381837;19;20074;-73
2023/12/13 07:42:11;;;;;;;17.20;4.03;;;11.80;99.90;;;;;;7403231;19;20014;-73
2023/12/13 07:44:40;;;;;;;30.35;4.45;;;11.80;99.90;;;;;;7380901;19;20030;-73
2023/12/13 07:47:09;;;;;;;22.02;4.07;;;11.80;99.90;;;;;;7380383;19;20017;-73
2023/12/13 07:49:39;;;;;;;12.93;4.30;;;11.80;99.90;;;;;;7381073;19;20006;-73
2023/12/13 07:52:08;;;;;;;18.02;3.60;;;11.90;99.90;;;;;;7384100;19;20003;-74
2023/12/13 07:54:40;;;;;;;14.68;3.83;;;11.90;99.90;;;;;;7384277;19;20355;-73
2023/12/13 07:57:08;;;;;;;22.30;4.63;;;11.90;99.90;;;;;;7405823;19;20382;-73
2023/12/13 07:59:37;;;;;;;16.05;3.75;;;12.00;99.90;;;;;;7383266;19;20110;-73
2023/12/13 08:02:06;;;;;;;18.88;5.22;;;12.00;99.90;;;;;;7383258;19;20009;-72
2023/12/13 08:04:35;;;;;;;23.65;5.20;;;12.10;99.90;;;;;;7384661;19;20014;-74
2023/12/13 08:07:04;;;;;;;18.60;5.03;;;12.10;99.90;;;;;;7382848;19;20041;-73
2023/12/13 08:09:33;;;;;;;14.43;2.80;;;12.20;99.90;;;;;;7383139;19;20412;-73
2023/12/13 08:12:05;;;;;;;14.73;3.03;;;12.30;99.90;;;;;;7402113;19;20019;-74
2023/12/13 08:14:34;;;;;;;15.20;3.45;;;12.30;99.90;;;;;;7379993;19;20002;-74
2023/12/13 08:17:06;;;;;;;17.50;3.90;;;12.30;99.90;;;;;;7380096;19;20013;-73
2023/12/13 08:19:35;;;;;;;19.20;4.80;;;12.40;99.90;;;;;;7379924;19;20009;-73
2023/12/13 08:22:03;;;;;;;17.95;4.93;;;12.40;99.90;;;;;;7379593;19;20023;-72
2023/12/13 08:24:32;;;;;;;21.45;3.10;;;12.50;99.90;;;;;;7379281;19;20600;-73
2023/12/13 08:27:05;;;;;;;15.93;2.20;;;12.50;99.90;;;;;;7400950;19;20283;-73
2023/12/13 08:29:34;;;;;;;17.95;3.38;;;12.50;99.90;;;;;;7379872;19;20007;-73
2023/12/13 08:32:06;;;;;;;22.77;3.00;;;12.50;99.90;;;;;;7379498;19;20119;-74
2023/12/13 08:34:35;;;;;;;13.52;2.80;;;12.60;99.90;;;;;;7379458;19;20405;-74
2023/12/13 08:37:04;;;;;;;8.38;1.90;;;12.40;99.90;;;;;;7378528;19;20010;-73
2023/12/13 08:39:35;;;;;;;5.88;1.90;;;12.50;99.90;;;;;;7378921;19;20062;-73
2023/12/13 08:42:09;;;;;;;8.25;1.80;;;12.60;99.90;;;;;;7399476;19;20010;-73
2023/12/13 08:44:37;;;;;;;9.80;1.77;;;12.50;99.90;;;;;;7378416;19;20003;-75
2023/12/13 08:47:06;;;;;;;15.68;2.25;;;12.60;99.90;;;;;;7379878;19;20011;-73
2023/12/13 08:49:35;;;;;;;10.52;1.80;;;12.60;99.90;;;;;;7379734;19;20124;-74
2023/12/13 08:52:04;;;;;;;7.57;1.80;;;12.60;99.90;;;;;;7379292;19;20332;-73
2023/12/13 08:54:33;;;;;;;11.98;1.83;;;12.60;99.90;;;;;;7380004;19;20010;-74
2023/12/13 08:57:01;;;;;;;12.18;1.88;;;12.60;99.90;;;;;;7400128;19;20017;-73
2023/12/13 08:59:33;;;;;;;9.73;2.03;;;12.50;99.90;;;;;;7378242;19;19999;-73
2023/12/13 09:02:01;;;;;;;8.90;2.13;;;12.50;99.90;;;;;;7379167;19;20281;-73
2023/12/13 09:04:30;;;;;;;9.02;1.83;;;12.50;99.90;;;;;;7379051;19;20010;-73
2023/12/13 09:06:59;;;;;;;11.52;1.67;;;12.60;99.90;;;;;;7378940;19;20063;-72
2023/12/13 09:09:27;;;;;;;10.98;1.85;;;12.70;99.90;;;;;;7397308;19;20233;-73
2023/12/13 09:11:56;;;;;;;17.52;4.28;;;12.80;99.90;;;;;;7399481;19;20006;-73
2023/12/13 09:14:25;;;;;;;25.73;9.82;;;12.80;99.90;;;;;;7377974;19;20436;-72
2023/12/13 09:16:56;;;;;;;15.43;2.65;;;12.90;99.90;;;;;;7380091;19;20006;-72
2023/12/13 09:19:25;;;;;;;11.93;2.28;;;12.80;99.90;;;;;;7378486;19;20011;-73
2023/12/13 09:21:54;;;;;;;14.65;1.80;;;12.90;99.90;;;;;;7378273;19;20090;-73
2023/12/13 09:24:22;;;;;;;13.90;2.03;;;12.80;99.90;;;;;;7399601;19;20007;-73
2023/12/13 09:26:51;;;;;;;4.32;1.27;;;12.90;99.90;;;;;;7377794;19;19999;-72
2023/12/13 09:29:20;;;;;;;6.75;2.20;;;12.90;99.90;;;;;;7377705;19;20038;-72
2023/12/13 09:31:48;;;;;;;9.95;2.00;;;12.90;99.90;;;;;;7379204;19;20011;-73
2023/12/13 09:34:21;;;;;;;11.80;2.08;;;12.90;99.90;;;;;;7380640;19;20002;-73
2023/12/13 09:36:49;;;;;;;13.02;2.28;;;12.90;99.90;;;;;;7379887;19;20285;-73
2023/12/13 09:39:18;;;;;;;8.35;1.80;;;12.90;99.90;;;;;;7401788;19;20062;-73
2023/12/13 09:41:57;;;;;;;8.60;1.58;;;13.00;99.90;;;;;;7377640;19;20066;-73
2023/12/13 09:44:27;;;;;;;14.52;1.88;;;13.00;99.90;;;;;;7377847;19;20272;-73
2023/12/13 09:46:58;;;;;;;8.35;1.65;;;12.90;99.90;;;;;;7378364;19;20024;-73
2023/12/13 09:49:31;;;;;;;6.47;1.48;;;12.90;99.90;;;;;;7385281;19;20313;-72
2023/12/13 09:52:05;;;;;;;5.30;2.00;;;12.60;99.90;;;;;;7382682;19;20268;-74
2023/12/13 09:54:35;;;;;;;15.85;1.88;;;12.60;99.90;;;;;;7389579;19;20014;-73
2023/12/13 09:57:06;;;;;;;10.25;1.88;;;12.70;99.90;;;;;;7406481;19;20075;-72
2023/12/13 09:59:34;;;;;;;11.23;1.83;;;12.80;99.90;;;;;;7384159;19;20024;-73
2023/12/13 10:02:03;;;;;;;13.40;1.90;;;12.80;99.90;;;;;;7385896;19;20295;-73
2023/12/13 10:04:35;;;;;;;8.40;1.80;;;12.80;99.90;;;;;;7386240;19;20036;-73
2023/12/13 10:07:03;;;;;;;;;;;12.80;99.90;;;;;;7385796;19;20058;-73
2023/12/13 10:09:32;;;;;;;8.50;1.70;;;12.90;99.90;;;;;;7384577;19;19931;-73
2023/12/13 10:12:01;;;;;;;14.65;1.60;;;13.00;99.90;;;;;;7406114;19;20006;-73
2023/12/13 10:14:30;;;;;;;7.80;2.25;;;12.90;99.90;;;;;;7383919;19;20002;-72
2023/12/13 10:16:59;;;;;;;10.90;1.67;;;13.10;99.90;;;;;;7385292;19;20366;-73
2023/12/13 10:19:28;;;;;;;12.30;2.00;;;13.20;99.90;;;;;;7384375;19;20003;-72
2023/12/13 10:21:59;;;;;;;9.52;1.63;;;13.20;99.90;;;;;;7386862;19;20029;-73
2023/12/13 10:24:28;;;;;;;11.05;1.73;;;13.20;99.90;;;;;;7400423;19;20006;-73
2023/12/13 10:26:57;;;;;;;12.18;1.90;;;13.20;99.90;;;;;;7407307;19;20014;-72
2023/12/13 10:29:26;;;;;;;5.93;1.33;;;13.30;99.90;;;;;;7385639;19;20048;-72
2023/12/13 10:31:55;;;;;;;17.83;1.60;;;13.20;99.90;;;;;;7386440;19;20023;-74
2023/12/13 10:34:25;;;;;;;7.07;1.63;;;13.30;99.90;;;;;;7386654;19;20350;-73
2023/12/13 10:36:55;;;;;;;9.38;1.80;;;13.20;99.90;;;;;;7388535;19;20094;-72
2023/12/13 10:39:30;;;;;;;6.78;1.50;;;13.00;99.90;;;;;;7407414;19;20056;-73
2023/12/13 10:41:59;;;;;;;6.55;1.88;;;13.00;99.90;;;;;;7383844;19;20009;-73
2023/12/13 10:44:33;;;;;;;6.32;1.48;;;12.90;99.90;;;;;;7384811;19;20010;-73
2023/12/13 10:47:04;;;;;;;9.48;1.60;;;13.10;99.90;;;;;;7385342;19;20070;-74
2023/12/13 10:49:33;;;;;;;4.68;1.65;;;13.10;99.90;;;;;;7386185;19;20028;-72
2023/12/13 10:52:04;;;;;;;8.27;1.55;;;13.00;99.90;;;;;;7385671;19;20018;-73
2023/12/13 10:54:36;;;;;;;5.53;1.67;;;13.20;99.90;;;;;;7384740;19;20010;-73
2023/12/13 10:57:06;;;;;;;5.53;1.33;;;13.10;99.90;;;;;;7406327;19;20019;-73
2023/12/13 10:59:36;;;;;;;5.05;1.45;;;13.10;99.90;;;;;;7382857;19;20015;-73
2023/12/13 11:02:06;;;;;;;4.25;1.48;;;13.20;99.90;;;;;;7382568;19;20362;-73
2023/12/13 11:04:36;;;;;;;8.18;1.52;;;13.10;99.90;;;;;;7386139;19;20035;-72
2023/12/13 11:07:06;;;;;;;8.32;1.40;;;13.10;99.90;;;;;;7384848;19;20010;-73
2023/12/13 11:09:38;;;;;;;9.45;1.75;;;13.20;99.90;;;;;;7383748;19;20007;-73
2023/12/13 11:12:18;;;;;;;5.55;1.60;;;13.00;99.90;;;;;;7406885;19;20010;-73
2023/12/13 11:14:50;;;;;;;7.53;1.60;;;13.20;99.90;;;;;;7384163;19;19999;-72
2023/12/13 11:17:21;;;;;;;3.08;1.45;;;13.20;99.90;;;;;;7385952;19;20378;-73
2023/12/13 11:19:50;;;;;;;8.23;2.05;;;13.20;99.90;;;;;;7386431;19;20009;-73
2023/12/13 11:22:24;;;;;;;3.40;1.58;;;13.20;99.90;;;;;;7383662;19;20055;-73
2023/12/13 11:25:06;;;;;;;10.98;1.85;;;13.00;99.90;;;;;;7383860;19;20010;-73
2023/12/13 11:27:34;;;;;;;;;;;13.00;99.90;;;;;;7383461;19;20238;-73
2023/12/13 11:30:14;;;;;;;8.07;1.90;;;13.10;99.90;;;;;;7404697;19;19919;-73
2023/12/13 11:32:46;;;;;;;5.18;2.10;;;13.20;99.90;;;;;;7383498;19;20010;-73
2023/12/13 11:35:17;;;;;;;6.18;1.77;;;13.20;99.90;;;;;;7383035;19;20006;-73
2023/12/13 11:37:50;;;;;;;13.90;2.35;;;13.30;99.90;;;;;;7384464;19;20003;-73
2023/12/13 11:40:22;;;;;;;8.45;1.80;;;13.40;99.90;;;;;;7384993;19;20020;-72
2023/12/13 11:42:51;;;;;;;12.55;1.70;;;13.40;99.90;;;;;;7383751;19;20018;-73
2023/12/13 11:45:21;;;;;;;7.35;2.03;;;13.30;99.90;;;;;;7406567;19;20262;-73
2023/12/13 11:47:50;;;;;;;7.55;2.08;;;12.80;99.90;;;;;;7385028;19;20012;-73
2023/12/13 11:50:19;;;;;;;9.00;2.53;;;13.00;99.90;;;;;;7381586;19;20014;-72
2023/12/13 11:52:48;;;;;;;6.63;2.10;;;13.20;99.90;;;;;;7382750;19;20007;-73
2023/12/13 11:55:22;;;;;;;13.27;1.77;;;13.30;99.90;;;;;;7382779;19;20694;-72
2023/12/13 11:57:51;;;;;;;8.65;1.88;;;13.20;99.90;;;;;;7383181;19;20035;-73
2023/12/13 12:00:20;;;;;;;10.50;2.25;;;13.30;99.90;;;;;;7402733;19;20395;-74
2023/12/13 12:02:49;;;;;;;7.78;1.83;;;13.30;99.90;;;;;;7380217;19;20017;-74
2023/12/13 12:05:18;;;;;;;5.18;1.65;;;13.20;99.90;;;;;;7382968;19;20225;-75
2023/12/13 12:07:57;;;;;;;6.05;1.90;;;13.20;99.90;;;;;;7382560;19;20015;-74
2023/12/13 12:10:28;;;;;;;6.60;2.35;;;12.80;99.90;;;;;;7380099;19;20070;-74
2023/12/13 12:12:57;;;;;;;5.85;2.50;;;12.70;99.90;;;;;;7382759;19;20018;-73
2023/12/13 12:15:25;;;;;;;7.45;2.28;;;12.70;99.90;;;;;;7403902;19;20002;-73
2023/12/13 12:17:54;;;;;;;8.57;2.28;;;12.80;99.90;;;;;;7380729;19;20358;-73
2023/12/13 12:20:23;;;;;;;6.78;2.42;;;12.80;99.90;;;;;;7383427;19;20011;-73
2023/12/13 12:22:52;;;;;;;6.05;2.47;;;12.90;99.90;;;;;;7381245;19;20031;-73
2023/12/13 12:25:24;;;;;;;7.97;1.77;;;12.80;99.90;;;;;;7381008;19;20083;-72
2023/12/13 12:27:55;;;;;;;4.93;2.13;;;12.90;99.90;;;;;;7381681;19;20006;-73
2023/12/13 12:30:25;;;;;;;16.52;2.60;;;13.00;99.90;;;;;;7403533;19;20019;-72
2023/12/13 12:32:53;;;;;;;4.75;2.00;;;12.70;99.90;;;;;;7380373;19;20017;-73
2023/12/13 12:35:22;;;;;;;8.57;2.20;;;12.80;99.90;;;;;;7383808;19;20078;-73
2023/12/13 12:37:51;;;;;;;5.53;2.55;;;12.60;99.90;;;;;;7381991;19;19999;-73
2023/12/13 12:40:19;;;;;;;6.93;2.03;;;12.40;99.90;;;;;;7380446;19;20576;-73
2023/12/13 12:42:48;;;;;;;4.82;1.92;;;12.40;99.90;;;;;;7379955;19;20074;-73
2023/12/13 12:45:19;;;;;;;5.75;2.47;;;12.50;99.90;;;;;;7402804;19;20362;-72
2023/12/13 12:47:48;;;;;;;7.03;2.30;;;12.60;99.90;;;;;;7380279;19;20090;-73
2023/12/13 12:50:17;;;;;;;7.10;2.10;;;12.50;99.90;;;;;;7379852;19;20544;-73
2023/12/13 12:52:45;;;;;;;6.38;2.20;;;12.50;99.90;;;;;;7380285;19;20007;-73